createdAt,value
2023-02-13T00:00:25.058Z,63.97
2023-02-13T00:01:25.061Z,64.29
2023-02-13T00:02:25.165Z,63.16
2023-02-13T00:03:25.117Z,66.55
2023-02-13T00:04:25.047Z,65.26
2023-02-13T00:05:25.051Z,64.13
2023-02-13T00:06:25.048Z,68.00
2023-02-13T00:07:25.052Z,66.87
2023-02-13T00:08:25.020Z,62.20
2023-02-13T00:09:25.015Z,68.32
2023-02-13T00:10:25.063Z,69.13
2023-02-13T00:11:24.993Z,65.90
2023-02-13T00:12:25.042Z,65.10
2023-02-13T00:13:24.979Z,60.75
2023-02-13T00:14:24.985Z,65.42
2023-02-13T00:15:24.988Z,68.64
2023-02-13T00:16:24.976Z,64.61
2023-02-13T00:17:24.983Z,64.13
2023-02-13T00:18:24.967Z,64.78
2023-02-13T00:19:24.956Z,63.81
2023-02-13T00:20:24.979Z,64.13
2023-02-13T00:21:24.960Z,62.84
2023-02-13T00:22:24.935Z,65.26
2023-02-13T00:23:24.930Z,66.55
2023-02-13T00:24:24.944Z,64.61
2023-02-13T00:25:24.917Z,60.42
2023-02-13T00:26:24.915Z,67.19
2023-02-13T00:27:24.941Z,65.42
2023-02-13T00:28:24.960Z,64.45
2023-02-13T00:29:24.896Z,65.90
2023-02-13T00:30:24.885Z,65.10
2023-02-13T00:31:25.028Z,66.39
2023-02-13T00:32:24.897Z,64.78
2023-02-13T00:33:24.891Z,63.16
2023-02-13T00:34:24.879Z,65.58
2023-02-13T00:35:24.868Z,66.55
2023-02-13T00:36:24.869Z,62.84
2023-02-13T00:37:24.851Z,64.61
2023-02-13T00:38:24.853Z,66.55
2023-02-13T00:39:24.890Z,64.78
2023-02-13T00:40:24.835Z,65.26
2023-02-13T00:41:24.836Z,64.13
2023-02-13T00:42:24.820Z,65.58
2023-02-13T00:43:24.832Z,64.45
2023-02-13T00:44:24.811Z,67.51
2023-02-13T00:45:24.848Z,65.10
2023-02-13T00:46:24.856Z,64.29
2023-02-13T00:47:24.795Z,66.06
2023-02-13T00:48:24.785Z,64.13
2023-02-13T00:49:24.807Z,60.42
2023-02-13T00:50:24.790Z,64.45
2023-02-13T00:51:24.773Z,63.33
2023-02-13T00:52:24.770Z,67.68
2023-02-13T00:53:24.785Z,64.94
2023-02-13T00:54:24.755Z,66.06
2023-02-13T00:55:24.790Z,57.69
2023-02-13T00:56:24.739Z,61.55
2023-02-13T00:57:24.752Z,65.10
2023-02-13T00:58:24.802Z,68.64
2023-02-13T00:59:24.736Z,67.19
2023-02-13T01:00:24.720Z,64.13
2023-02-13T01:01:24.779Z,63.16
2023-02-13T01:02:24.720Z,63.00
2023-02-13T01:03:24.767Z,63.97
2023-02-13T01:04:24.708Z,63.81
2023-02-13T01:05:24.717Z,64.29
2023-02-13T01:06:24.699Z,67.84
2023-02-13T01:07:24.702Z,66.23
2023-02-13T01:08:24.678Z,65.42
2023-02-13T01:09:24.672Z,62.84
2023-02-13T01:10:24.720Z,66.06
2023-02-13T01:11:24.656Z,63.81
2023-02-13T01:12:24.664Z,64.61
2023-02-13T01:13:24.648Z,64.61
2023-02-13T01:14:24.663Z,62.68
2023-02-13T01:15:24.652Z,63.65
2023-02-13T01:16:24.871Z,63.65
2023-02-13T01:17:24.651Z,63.49
2023-02-13T01:18:24.621Z,63.65
2023-02-13T01:19:24.627Z,63.65
2023-02-13T01:20:24.648Z,63.49
2023-02-13T01:21:24.644Z,65.74
2023-02-13T01:22:24.604Z,63.65
2023-02-13T01:23:24.606Z,66.06
2023-02-13T01:24:24.597Z,61.71
2023-02-13T01:25:24.585Z,65.58
2023-02-13T01:26:24.580Z,65.10
2023-02-13T01:27:24.606Z,63.81
2023-02-13T01:28:24.658Z,66.55
2023-02-13T01:29:24.590Z,65.26
2023-02-13T01:30:24.580Z,66.06
2023-02-13T01:31:24.675Z,64.29
2023-02-13T01:32:24.564Z,63.97
2023-02-13T01:33:24.589Z,65.90
2023-02-13T01:34:24.537Z,65.58
2023-02-13T01:35:24.537Z,67.68
2023-02-13T01:36:24.530Z,65.42
2023-02-13T01:37:24.523Z,67.19
2023-02-13T01:38:24.538Z,61.07
2023-02-13T01:39:24.534Z,65.42
2023-02-13T01:40:24.494Z,65.58
2023-02-13T01:41:24.529Z,65.42
2023-02-13T01:42:24.483Z,66.06
2023-02-13T01:43:24.477Z,67.51
2023-02-13T01:44:24.504Z,67.68
2023-02-13T01:45:24.467Z,66.87
2023-02-13T01:46:24.536Z,66.23
2023-02-13T01:47:24.474Z,66.71
2023-02-13T01:48:24.471Z,64.45
2023-02-13T01:49:24.461Z,66.06
2023-02-13T01:50:24.459Z,66.55
2023-02-13T01:51:24.461Z,66.71
2023-02-13T01:52:24.443Z,66.39
2023-02-13T01:53:24.450Z,64.13
2023-02-13T01:54:24.421Z,67.03
2023-02-13T01:55:24.417Z,66.06
2023-02-13T01:56:24.420Z,57.04
2023-02-13T01:57:24.421Z,63.81
2023-02-13T01:58:24.421Z,64.78
2023-02-13T01:59:24.384Z,65.26
2023-02-13T02:00:24.414Z,60.26
2023-02-13T02:01:24.481Z,62.04
2023-02-13T02:02:24.528Z,65.58
2023-02-13T02:03:24.391Z,68.80
2023-02-13T02:04:24.380Z,65.58
2023-02-13T02:05:24.387Z,67.19
2023-02-13T02:06:24.379Z,66.87
2023-02-13T02:07:24.361Z,63.81
2023-02-13T02:08:24.372Z,65.42
2023-02-13T02:09:24.359Z,63.33
2023-02-13T02:10:24.340Z,64.78
2023-02-13T02:11:24.324Z,62.04
2023-02-13T02:12:24.334Z,66.23
2023-02-13T02:13:24.309Z,68.16
2023-02-13T02:14:24.335Z,64.94
2023-02-13T02:15:24.330Z,60.91
2023-02-13T02:16:24.360Z,64.29
2023-02-13T02:17:24.288Z,64.45
2023-02-13T02:18:24.294Z,68.00
2023-02-13T02:19:24.277Z,64.45
2023-02-13T02:20:24.279Z,64.61
2023-02-13T02:21:24.288Z,68.64
2023-02-13T02:22:24.260Z,65.58
2023-02-13T02:23:24.253Z,67.03
2023-02-13T02:24:24.255Z,63.81
2023-02-13T02:25:24.244Z,67.03
2023-02-13T02:26:24.241Z,69.29
2023-02-13T02:27:24.243Z,64.78
2023-02-13T02:28:24.253Z,67.35
2023-02-13T02:29:24.231Z,64.13
2023-02-13T02:30:24.269Z,66.23
2023-02-13T02:31:24.224Z,68.16
2023-02-13T02:32:24.236Z,69.29
2023-02-13T02:33:24.202Z,64.45
2023-02-13T02:34:24.199Z,66.39
2023-02-13T02:35:24.211Z,66.23
2023-02-13T02:36:24.209Z,66.87
2023-02-13T02:37:24.197Z,63.81
2023-02-13T02:38:24.194Z,66.39
2023-02-13T02:39:24.172Z,69.77
2023-02-13T02:40:24.164Z,68.48
2023-02-13T02:41:24.158Z,66.55
2023-02-13T02:42:24.169Z,66.23
2023-02-13T02:43:24.149Z,66.06
2023-02-13T02:44:24.171Z,69.13
2023-02-13T02:45:24.134Z,68.96
2023-02-13T02:46:24.183Z,69.29
2023-02-13T02:47:24.114Z,68.16
2023-02-13T02:48:24.116Z,67.19
2023-02-13T02:49:24.125Z,68.00
2023-02-13T02:50:24.134Z,68.32
2023-02-13T02:51:24.100Z,67.35
2023-02-13T02:52:24.093Z,68.48
2023-02-13T02:53:24.078Z,66.71
2023-02-13T02:54:24.083Z,67.19
2023-02-13T02:55:24.092Z,68.32
2023-02-13T02:56:24.096Z,67.19
2023-02-13T02:57:24.058Z,69.45
2023-02-13T02:58:24.059Z,68.80
2023-02-13T02:59:24.055Z,69.13
2023-02-13T03:00:24.067Z,67.84
2023-02-13T03:01:24.103Z,68.80
2023-02-13T03:02:24.031Z,68.80
2023-02-13T03:03:24.040Z,68.16
2023-02-13T03:04:24.082Z,63.97
2023-02-13T03:05:24.015Z,66.71
2023-02-13T03:06:24.013Z,65.74
2023-02-13T03:07:24.031Z,67.84
2023-02-13T03:08:23.998Z,66.39
2023-02-13T03:09:23.992Z,68.00
2023-02-13T03:10:23.990Z,67.68
2023-02-13T03:11:24.004Z,68.16
2023-02-13T03:12:23.965Z,67.35
2023-02-13T03:13:23.965Z,68.00
2023-02-13T03:14:23.967Z,65.42
2023-02-13T03:15:23.973Z,66.39
2023-02-13T03:16:24.005Z,66.39
2023-02-13T03:17:23.972Z,68.64
2023-02-13T03:18:23.969Z,67.84
2023-02-13T03:19:23.966Z,68.64
2023-02-13T03:20:23.958Z,67.19
2023-02-13T03:21:23.959Z,66.23
2023-02-13T03:22:23.944Z,67.03
2023-02-13T03:23:23.931Z,66.23
2023-02-13T03:24:23.940Z,68.16
2023-02-13T03:25:23.935Z,66.06
2023-02-13T03:26:23.905Z,68.32
2023-02-13T03:27:23.897Z,68.32
2023-02-13T03:28:23.932Z,67.68
2023-02-13T03:29:23.878Z,68.16
2023-02-13T03:30:23.941Z,68.32
2023-02-13T03:31:23.898Z,68.16
2023-02-13T03:32:23.874Z,69.13
2023-02-13T03:33:23.863Z,66.06
2023-02-13T03:34:23.866Z,68.64
2023-02-13T03:35:23.854Z,68.96
2023-02-13T03:36:23.874Z,67.03
2023-02-13T03:37:23.848Z,69.93
2023-02-13T03:38:23.843Z,66.55
2023-02-13T03:39:23.832Z,66.87
2023-02-13T03:40:23.832Z,66.06
2023-02-13T03:41:23.819Z,67.03
2023-02-13T03:42:23.848Z,65.58
2023-02-13T03:43:23.801Z,70.25
2023-02-13T03:44:23.806Z,67.51
2023-02-13T03:45:23.791Z,65.58
2023-02-13T03:46:23.797Z,68.32
2023-02-13T03:47:23.792Z,67.35
2023-02-13T03:48:23.809Z,66.39
2023-02-13T03:49:23.774Z,65.58
2023-02-13T03:50:23.770Z,66.39
2023-02-13T03:51:23.765Z,68.16
2023-02-13T03:52:23.771Z,66.55
2023-02-13T03:53:23.763Z,68.96
2023-02-13T03:54:23.797Z,68.32
2023-02-13T03:55:23.742Z,68.96
2023-02-13T03:56:23.747Z,68.96
2023-02-13T03:57:23.743Z,68.96
2023-02-13T03:58:23.729Z,68.48
2023-02-13T03:59:23.714Z,67.51
2023-02-13T04:00:23.733Z,72.19
2023-02-13T04:01:23.762Z,67.51
2023-02-13T04:02:23.740Z,67.51
2023-02-13T04:03:23.696Z,68.64
2023-02-13T04:04:23.693Z,67.84
2023-02-13T04:05:23.712Z,70.09
2023-02-13T04:06:23.683Z,69.61
2023-02-13T04:07:23.677Z,68.80
2023-02-13T04:08:23.665Z,66.71
2023-02-13T04:09:23.659Z,67.35
2023-02-13T04:10:23.690Z,68.16
2023-02-13T04:11:23.653Z,67.84
2023-02-13T04:12:23.675Z,67.35
2023-02-13T04:13:23.651Z,67.84
2023-02-13T04:14:23.642Z,67.68
2023-02-13T04:15:23.635Z,66.87
2023-02-13T04:16:23.684Z,68.80
2023-02-13T04:17:23.658Z,67.84
2023-02-13T04:18:23.627Z,69.45
2023-02-13T04:19:23.626Z,68.96
2023-02-13T04:20:23.611Z,68.80
2023-02-13T04:21:23.600Z,67.68
2023-02-13T04:22:23.602Z,66.23
2023-02-13T04:23:23.594Z,67.84
2023-02-13T04:24:23.588Z,66.87
2023-02-13T04:25:23.578Z,67.19
2023-02-13T04:26:23.573Z,68.48
2023-02-13T04:27:23.560Z,67.51
2023-02-13T04:28:23.654Z,66.06
2023-02-13T04:29:23.561Z,66.87
2023-02-13T04:30:23.609Z,68.64
2023-02-13T04:31:23.646Z,68.48
2023-02-13T04:32:23.543Z,67.68
2023-02-13T04:33:23.535Z,68.32
2023-02-13T04:34:23.560Z,68.96
2023-02-13T04:35:23.520Z,66.06
2023-02-13T04:36:23.528Z,68.32
2023-02-13T04:37:23.535Z,67.03
2023-02-13T04:38:23.521Z,66.71
2023-02-13T04:39:23.501Z,67.84
2023-02-13T04:40:23.500Z,67.19
2023-02-13T04:41:23.495Z,68.80
2023-02-13T04:42:23.519Z,66.06
2023-02-13T04:43:23.486Z,68.64
2023-02-13T04:44:23.477Z,67.84
2023-02-13T04:45:23.469Z,67.19
2023-02-13T04:46:23.518Z,68.80
2023-02-13T04:47:23.474Z,68.32
2023-02-13T04:48:23.520Z,68.32
2023-02-13T04:49:23.447Z,68.00
2023-02-13T04:50:23.458Z,67.84
2023-02-13T04:51:23.445Z,67.51
2023-02-13T04:52:23.438Z,68.48
2023-02-13T04:53:23.420Z,67.51
2023-02-13T04:54:23.457Z,66.71
2023-02-13T04:55:23.419Z,67.51
2023-02-13T04:56:23.526Z,65.90
2023-02-13T04:57:23.445Z,68.00
2023-02-13T04:58:23.408Z,66.55
2023-02-13T04:59:23.405Z,68.32
2023-02-13T05:00:23.433Z,67.19
2023-02-13T05:01:23.435Z,66.71
2023-02-13T05:02:23.426Z,66.23
2023-02-13T05:03:23.383Z,67.19
2023-02-13T05:04:23.445Z,69.29
2023-02-13T05:05:23.370Z,67.51
2023-02-13T05:06:23.391Z,68.00
2023-02-13T05:07:23.412Z,68.16
2023-02-13T05:08:23.375Z,67.35
2023-02-13T05:09:23.369Z,66.55
2023-02-13T05:10:23.354Z,66.06
2023-02-13T05:11:23.360Z,68.64
2023-02-13T05:12:23.395Z,69.77
2023-02-13T05:13:23.324Z,68.00
2023-02-13T05:14:23.337Z,68.16
2023-02-13T05:15:23.327Z,69.29
2023-02-13T05:16:23.315Z,68.32
2023-02-13T05:17:23.330Z,69.77
2023-02-13T05:18:23.308Z,66.71
2023-02-13T05:19:23.304Z,67.68
2023-02-13T05:20:23.310Z,68.16
2023-02-13T05:21:23.304Z,66.87
2023-02-13T05:22:23.306Z,65.74
2023-02-13T05:23:23.269Z,68.32
2023-02-13T05:24:23.266Z,68.48
2023-02-13T05:25:23.295Z,65.74
2023-02-13T05:26:23.304Z,68.48
2023-02-13T05:27:23.261Z,68.16
2023-02-13T05:28:23.299Z,67.03
2023-02-13T05:29:23.290Z,68.16
2023-02-13T05:30:23.235Z,68.16
2023-02-13T05:31:23.319Z,67.51
2023-02-13T05:32:23.265Z,67.68
2023-02-13T05:33:23.249Z,68.48
2023-02-13T05:34:23.223Z,70.09
2023-02-13T05:35:23.207Z,68.48
2023-02-13T05:36:23.211Z,67.84
2023-02-13T05:37:23.192Z,68.64
2023-02-13T05:38:23.220Z,66.71
2023-02-13T05:39:23.183Z,68.96
2023-02-13T05:40:23.204Z,66.23
2023-02-13T05:41:23.171Z,66.71
2023-02-13T05:42:23.172Z,69.13
2023-02-13T05:43:23.168Z,69.29
2023-02-13T05:44:23.161Z,67.51
2023-02-13T05:45:23.169Z,68.32
2023-02-13T05:46:23.207Z,69.93
2023-02-13T05:47:23.148Z,68.16
2023-02-13T05:48:23.152Z,69.13
2023-02-13T05:49:23.139Z,68.48
2023-02-13T05:50:23.139Z,67.03
2023-02-13T05:51:23.114Z,68.64
2023-02-13T05:52:23.166Z,68.80
2023-02-13T05:53:23.115Z,66.71
2023-02-13T05:54:23.099Z,68.16
2023-02-13T05:55:23.093Z,68.80
2023-02-13T05:56:23.095Z,68.16
2023-02-13T05:57:23.085Z,67.68
2023-02-13T05:58:23.115Z,68.48
2023-02-13T05:59:24.045Z,67.03
2023-02-13T06:00:23.078Z,67.84
2023-02-13T06:01:23.063Z,65.26
2023-02-13T06:02:23.169Z,68.64
2023-02-13T06:03:23.094Z,69.29
2023-02-13T06:04:23.093Z,67.03
2023-02-13T06:05:23.031Z,68.64
2023-02-13T06:06:23.047Z,68.96
2023-02-13T06:07:23.033Z,68.16
2023-02-13T06:08:23.014Z,68.64
2023-02-13T06:09:23.010Z,69.45
2023-02-13T06:10:23.031Z,68.80
2023-02-13T06:11:22.998Z,69.13
2023-02-13T06:12:23.004Z,67.84
2023-02-13T06:13:23.012Z,69.29
2023-02-13T06:14:22.989Z,69.29
2023-02-13T06:15:23.007Z,68.00
2023-02-13T06:16:23.016Z,67.51
2023-02-13T06:17:22.974Z,69.13
2023-02-13T06:18:22.986Z,68.32
2023-02-13T06:19:22.961Z,68.16
2023-02-13T06:20:22.960Z,68.32
2023-02-13T06:21:22.969Z,68.48
2023-02-13T06:22:22.980Z,68.80
2023-02-13T06:23:22.952Z,68.16
2023-02-13T06:24:22.947Z,67.84
2023-02-13T06:25:22.925Z,67.84
2023-02-13T06:26:22.955Z,67.35
2023-02-13T06:27:22.920Z,69.29
2023-02-13T06:28:23.002Z,69.45
2023-02-13T06:29:22.916Z,71.06
2023-02-13T06:30:23.004Z,71.87
2023-02-13T06:31:23.007Z,69.77
2023-02-13T06:32:22.933Z,69.77
2023-02-13T06:33:22.909Z,69.45
2023-02-13T06:34:22.889Z,69.13
2023-02-13T06:35:22.885Z,69.61
2023-02-13T06:36:22.870Z,68.16
2023-02-13T06:37:22.868Z,66.87
2023-02-13T06:38:22.891Z,69.29
2023-02-13T06:39:22.855Z,71.54
2023-02-13T06:40:22.859Z,69.29
2023-02-13T06:41:22.849Z,68.96
2023-02-13T06:42:22.846Z,70.09
2023-02-13T06:43:22.891Z,69.29
2023-02-13T06:44:22.831Z,68.96
2023-02-13T06:45:22.824Z,68.32
2023-02-13T06:46:22.852Z,69.77
2023-02-13T06:47:22.832Z,70.25
2023-02-13T06:48:22.820Z,70.58
2023-02-13T06:49:22.825Z,71.54
2023-02-13T06:50:22.843Z,68.48
2023-02-13T06:51:22.802Z,68.00
2023-02-13T06:52:22.805Z,68.48
2023-02-13T06:53:22.796Z,67.51
2023-02-13T06:54:31.553Z,68.64
2023-02-13T06:55:23.825Z,70.90
2023-02-13T06:56:22.796Z,70.58
2023-02-13T06:57:22.768Z,70.42
2023-02-13T06:58:22.776Z,69.13
2023-02-13T06:59:22.780Z,70.25
2023-02-13T07:00:22.760Z,69.45
2023-02-13T07:01:22.831Z,69.29
2023-02-13T07:02:22.803Z,70.90
2023-02-13T07:03:22.744Z,69.61
2023-02-13T07:04:22.763Z,70.25
2023-02-13T07:05:22.722Z,69.45
2023-02-13T07:06:22.719Z,72.19
2023-02-13T07:07:22.740Z,69.93
2023-02-13T07:08:22.711Z,71.06
2023-02-13T07:09:22.766Z,71.87
2023-02-13T07:10:22.720Z,70.25
2023-02-13T07:11:22.688Z,70.09
2023-02-13T07:12:22.701Z,69.29
2023-02-13T07:13:22.703Z,70.25
2023-02-13T07:14:22.674Z,70.25
2023-02-13T07:15:22.688Z,69.93
2023-02-13T07:16:22.686Z,68.80
2023-02-13T07:17:22.677Z,69.61
2023-02-13T07:18:22.674Z,71.87
2023-02-13T07:19:22.644Z,69.45
2023-02-13T07:20:22.700Z,69.13
2023-02-13T07:21:22.643Z,69.61
2023-02-13T07:22:22.627Z,67.68
2023-02-13T07:23:22.624Z,68.80
2023-02-13T07:24:22.624Z,69.77
2023-02-13T07:25:22.632Z,69.45
2023-02-13T07:26:22.611Z,69.13
2023-02-13T07:27:22.617Z,71.38
2023-02-13T07:28:22.656Z,70.58
2023-02-13T07:29:22.596Z,69.45
2023-02-13T07:30:22.592Z,69.77
2023-02-13T07:31:22.695Z,69.45
2023-02-13T07:32:22.574Z,69.45
2023-02-13T07:33:22.583Z,69.45
2023-02-13T07:34:22.571Z,70.74
2023-02-13T07:35:22.566Z,70.25
2023-02-13T07:36:22.567Z,70.42
2023-02-13T07:37:22.578Z,68.96
2023-02-13T07:38:22.557Z,68.32
2023-02-13T07:39:22.537Z,70.90
2023-02-13T07:40:22.543Z,70.09
2023-02-13T07:41:22.531Z,67.19
2023-02-13T07:42:22.520Z,68.16
2023-02-13T07:43:22.532Z,68.00
2023-02-13T07:44:22.520Z,66.87
2023-02-13T07:45:22.506Z,68.64
2023-02-13T07:46:22.581Z,67.68
2023-02-13T07:47:22.505Z,67.84
2023-02-13T07:48:22.497Z,66.55
2023-02-13T07:49:22.516Z,65.90
2023-02-13T07:50:22.487Z,66.39
2023-02-13T07:51:22.471Z,65.90
2023-02-13T07:52:22.481Z,66.06
2023-02-13T07:53:22.458Z,64.94
2023-02-13T07:54:22.450Z,64.61
2023-02-13T07:55:22.480Z,63.97
2023-02-13T07:56:22.444Z,65.74
2023-02-13T07:57:22.469Z,64.78
2023-02-13T07:58:22.461Z,66.55
2023-02-13T07:59:22.420Z,65.26
2023-02-13T08:00:22.434Z,64.94
2023-02-13T08:01:22.580Z,65.10
2023-02-13T08:02:22.422Z,63.97
2023-02-13T08:03:22.397Z,62.68
2023-02-13T08:04:23.595Z,64.94
2023-02-13T08:05:22.384Z,65.58
2023-02-13T08:06:22.368Z,64.45
2023-02-13T08:07:22.349Z,65.26
2023-02-13T08:08:22.416Z,62.52
2023-02-13T08:09:22.376Z,63.33
2023-02-13T08:10:22.316Z,67.35
2023-02-13T08:11:22.320Z,64.61
2023-02-13T08:12:22.305Z,63.81
2023-02-13T08:13:22.311Z,64.13
2023-02-13T08:14:22.282Z,64.13
2023-02-13T08:15:22.281Z,67.68
2023-02-13T08:16:22.315Z,63.97
2023-02-13T08:17:22.258Z,63.00
2023-02-13T08:18:22.264Z,64.94
2023-02-13T08:19:22.263Z,64.78
2023-02-13T08:20:22.274Z,64.78
2023-02-13T08:21:22.242Z,63.16
2023-02-13T08:22:22.242Z,62.04
2023-02-13T08:23:22.292Z,64.78
2023-02-13T08:24:22.200Z,63.81
2023-02-13T08:25:22.191Z,65.58
2023-02-13T08:26:22.323Z,63.97
2023-02-13T08:27:22.188Z,67.35
2023-02-13T08:28:22.209Z,63.49
2023-02-13T08:29:22.152Z,63.81
2023-02-13T08:30:22.144Z,63.97
2023-02-13T08:31:22.244Z,63.81
2023-02-13T08:32:22.205Z,64.29
2023-02-13T08:33:22.121Z,64.45
2023-02-13T08:34:22.121Z,64.13
2023-02-13T08:35:22.106Z,64.13
2023-02-13T08:36:22.115Z,65.10
2023-02-13T08:37:22.151Z,64.78
2023-02-13T08:38:22.090Z,63.33
2023-02-13T08:39:22.117Z,62.04
2023-02-13T08:40:24.436Z,64.13
2023-02-13T08:41:22.056Z,61.87
2023-02-13T08:42:22.063Z,64.13
2023-02-13T08:43:22.063Z,63.97
2023-02-13T08:44:22.049Z,64.29
2023-02-13T08:45:22.031Z,63.81
2023-02-13T08:46:22.071Z,64.45
2023-02-13T08:47:22.013Z,63.33
2023-02-13T08:48:22.023Z,63.65
2023-02-13T08:49:22.013Z,64.13
2023-02-13T08:50:21.990Z,63.00
2023-02-13T08:51:22.004Z,63.65
2023-02-13T08:52:21.975Z,63.49
2023-02-13T08:53:21.974Z,63.49
2023-02-13T08:54:21.960Z,63.65
2023-02-13T08:55:21.976Z,63.97
2023-02-13T08:56:21.945Z,63.00
2023-02-13T08:57:21.928Z,63.81
2023-02-13T08:58:21.920Z,64.61
2023-02-13T08:59:21.930Z,62.68
2023-02-13T09:00:21.918Z,62.68
2023-02-13T09:01:21.941Z,63.49
2023-02-13T09:02:21.935Z,60.26
2023-02-13T09:03:21.888Z,62.84
2023-02-13T09:04:21.890Z,64.78
2023-02-13T09:05:21.876Z,63.33
2023-02-13T09:06:21.919Z,63.65
2023-02-13T09:07:21.909Z,63.97
2023-02-13T09:08:21.853Z,62.68
2023-02-13T09:09:21.835Z,64.94
2023-02-13T09:10:21.839Z,65.58
2023-02-13T09:11:21.839Z,65.74
2023-02-13T09:12:21.829Z,62.84
2023-02-13T09:13:21.802Z,63.16
2023-02-13T09:14:23.763Z,64.29
2023-02-13T09:15:21.789Z,64.61
2023-02-13T09:16:21.847Z,64.94
2023-02-13T09:17:21.779Z,61.71
2023-02-13T09:18:21.766Z,63.65
2023-02-13T09:19:21.780Z,62.36
2023-02-13T09:20:21.782Z,63.65
2023-02-13T09:21:21.771Z,63.81
2023-02-13T09:22:21.746Z,60.59
2023-02-13T09:23:21.736Z,63.16
2023-02-13T09:24:21.736Z,61.87
2023-02-13T09:25:21.804Z,60.59
2023-02-13T09:26:21.747Z,60.91
2023-02-13T09:27:21.704Z,61.07
2023-02-13T09:28:21.765Z,64.13
2023-02-13T09:29:21.691Z,63.97
2023-02-13T09:30:21.713Z,63.97
2023-02-13T09:31:21.783Z,63.81
2023-02-13T09:32:21.694Z,63.97
2023-02-13T09:33:21.666Z,63.33
2023-02-13T09:34:21.660Z,63.81
2023-02-13T09:35:21.671Z,61.55
2023-02-13T09:36:21.678Z,63.65
2023-02-13T09:37:21.640Z,61.07
2023-02-13T09:38:21.658Z,63.33
2023-02-13T09:39:21.636Z,62.04
2023-02-13T09:40:21.620Z,60.75
2023-02-13T09:41:21.612Z,61.55
2023-02-13T09:42:21.617Z,63.49
2023-02-13T09:43:21.595Z,61.23
2023-02-13T09:44:21.606Z,62.20
2023-02-13T09:45:21.580Z,61.23
2023-02-13T09:46:21.741Z,61.55
2023-02-13T09:47:21.566Z,63.81
2023-02-13T09:48:21.573Z,60.75
2023-02-13T09:49:21.552Z,63.33
2023-02-13T09:50:21.686Z,64.13
2023-02-13T09:51:21.541Z,67.35
2023-02-13T09:52:21.535Z,61.07
2023-02-13T09:53:21.521Z,62.68
2023-02-13T09:54:21.522Z,61.07
2023-02-13T09:55:21.570Z,59.78
2023-02-13T09:56:21.500Z,60.42
2023-02-13T09:57:21.493Z,60.42
2023-02-13T09:58:21.484Z,62.04
2023-02-13T09:59:21.486Z,59.94
2023-02-13T10:00:21.586Z,61.07
2023-02-13T10:01:21.572Z,60.10
2023-02-13T10:02:21.477Z,61.71
2023-02-13T10:03:21.464Z,62.20
2023-02-13T10:04:21.447Z,59.78
2023-02-13T10:05:21.469Z,60.42
2023-02-13T10:06:21.441Z,60.59
2023-02-13T10:07:21.446Z,61.71
2023-02-13T10:08:21.440Z,62.04
2023-02-13T10:09:21.426Z,60.42
2023-02-13T10:10:21.447Z,63.65
2023-02-13T10:11:21.402Z,59.78
2023-02-13T10:12:21.388Z,62.20
2023-02-13T10:13:22.124Z,60.10
2023-02-13T10:14:21.376Z,60.10
2023-02-13T10:15:21.369Z,59.78
2023-02-13T10:16:21.424Z,62.68
2023-02-13T10:17:21.357Z,60.91
2023-02-13T10:18:21.401Z,64.29
2023-02-13T10:19:21.340Z,63.33
2023-02-13T10:20:21.353Z,59.14
2023-02-13T10:21:21.332Z,62.20
2023-02-13T10:22:21.313Z,63.00
2023-02-13T10:23:21.321Z,60.91
2023-02-13T10:24:21.311Z,61.23
2023-02-13T10:25:21.305Z,60.59
2023-02-13T10:26:21.310Z,64.29
2023-02-13T10:27:21.282Z,60.91
2023-02-13T10:28:21.310Z,63.49
2023-02-13T10:29:21.264Z,63.49
2023-02-13T10:30:21.275Z,63.16
2023-02-13T10:31:21.375Z,59.94
2023-02-13T10:32:21.430Z,59.94
2023-02-13T10:33:21.257Z,60.59
2023-02-13T10:34:21.227Z,62.52
2023-02-13T10:35:21.226Z,64.13
2023-02-13T10:36:21.263Z,63.00
2023-02-13T10:37:21.213Z,61.87
2023-02-13T10:38:21.207Z,63.00
2023-02-13T10:39:21.191Z,60.42
2023-02-13T10:40:21.199Z,63.81
2023-02-13T10:41:21.178Z,63.97
2023-02-13T10:42:21.189Z,63.33
2023-02-13T10:43:21.165Z,63.33
2023-02-13T10:44:21.153Z,64.13
2023-02-13T10:45:21.148Z,62.20
2023-02-13T10:46:21.193Z,63.16
2023-02-13T10:47:21.135Z,64.13
2023-02-13T10:48:21.126Z,63.65
2023-02-13T10:49:21.168Z,61.07
2023-02-13T10:50:21.131Z,62.84
2023-02-13T10:51:21.097Z,60.26
2023-02-13T10:52:21.089Z,62.68
2023-02-13T10:53:21.099Z,62.84
2023-02-13T10:54:21.090Z,64.61
2023-02-13T10:55:21.111Z,62.36
2023-02-13T10:56:21.067Z,61.23
2023-02-13T10:57:21.067Z,62.68
2023-02-13T10:58:21.066Z,60.42
2023-02-13T10:59:21.041Z,62.68
2023-02-13T11:00:21.050Z,60.91
2023-02-13T11:01:21.045Z,64.13
2023-02-13T11:02:21.024Z,61.55
2023-02-13T11:03:21.025Z,61.55
2023-02-13T11:04:21.065Z,62.68
2023-02-13T11:05:20.985Z,61.71
2023-02-13T11:06:20.988Z,63.81
2023-02-13T11:07:20.981Z,60.75
2023-02-13T11:08:20.965Z,63.33
2023-02-13T11:09:20.979Z,63.49
2023-02-13T11:10:20.959Z,64.45
2023-02-13T11:11:20.969Z,63.97
2023-02-13T11:12:20.955Z,61.23
2023-02-13T11:13:20.940Z,64.29
2023-02-13T11:14:20.929Z,63.33
2023-02-13T11:15:20.904Z,61.55
2023-02-13T11:16:20.952Z,63.97
2023-02-13T11:17:20.889Z,62.68
2023-02-13T11:18:20.919Z,63.00
2023-02-13T11:19:20.889Z,63.16
2023-02-13T11:20:20.868Z,63.81
2023-02-13T11:21:20.874Z,63.65
2023-02-13T11:22:20.863Z,63.97
2023-02-13T11:23:20.841Z,61.23
2023-02-13T11:24:20.847Z,64.45
2023-02-13T11:25:20.835Z,63.65
2023-02-13T11:26:20.834Z,63.65
2023-02-13T11:27:22.154Z,63.97
2023-02-13T11:28:20.862Z,63.81
2023-02-13T11:29:20.977Z,67.68
2023-02-13T11:30:20.790Z,64.13
2023-02-13T11:31:20.970Z,64.13
2023-02-13T11:32:20.903Z,63.65
2023-02-13T11:33:20.758Z,67.51
2023-02-13T11:34:20.771Z,64.78
2023-02-13T11:35:20.741Z,64.94
2023-02-13T11:36:20.742Z,65.10
2023-02-13T11:37:20.775Z,65.26
2023-02-13T11:38:20.730Z,64.13
2023-02-13T11:39:20.719Z,65.26
2023-02-13T11:40:20.702Z,64.94
2023-02-13T11:41:20.701Z,64.29
2023-02-13T11:42:20.685Z,63.65
2023-02-13T11:43:20.685Z,64.61
2023-02-13T11:44:20.661Z,65.42
2023-02-13T11:45:20.676Z,66.39
2023-02-13T11:46:20.677Z,64.13
2023-02-13T11:47:20.645Z,65.58
2023-02-13T11:48:20.639Z,66.06
2023-02-13T11:49:20.623Z,64.78
2023-02-13T11:50:20.633Z,63.97
2023-02-13T11:51:20.627Z,65.42
2023-02-13T11:52:20.621Z,66.06
2023-02-13T11:53:20.619Z,67.84
2023-02-13T11:54:20.600Z,66.55
2023-02-13T11:55:20.574Z,64.29
2023-02-13T11:56:20.564Z,65.58
2023-02-13T11:57:20.557Z,63.81
2023-02-13T11:58:20.731Z,65.42
2023-02-13T11:59:20.548Z,64.29
2023-02-13T12:00:20.543Z,64.61
2023-02-13T12:01:20.527Z,64.13
2023-02-13T12:02:20.582Z,63.00
2023-02-13T12:03:20.650Z,66.06
2023-02-13T12:04:20.517Z,64.61
2023-02-13T12:05:20.522Z,65.58
2023-02-13T12:06:20.489Z,65.10
2023-02-13T12:07:20.495Z,65.58
2023-02-13T12:08:20.469Z,67.19
2023-02-13T12:09:20.491Z,66.06
2023-02-13T12:10:20.454Z,66.55
2023-02-13T12:11:20.446Z,64.94
2023-02-13T12:12:20.441Z,65.58
2023-02-13T12:13:20.435Z,63.97
2023-02-13T12:14:20.439Z,63.81
2023-02-13T12:15:20.435Z,66.39
2023-02-13T12:16:20.454Z,64.29
2023-02-13T12:17:30.946Z,68.96
2023-02-13T12:18:21.392Z,64.94
2023-02-13T12:19:20.384Z,65.10
2023-02-13T12:20:20.395Z,64.13
2023-02-13T12:21:20.364Z,65.26
2023-02-13T12:22:20.529Z,66.39
2023-02-13T12:23:20.352Z,65.42
2023-02-13T12:24:20.377Z,65.10
2023-02-13T12:25:20.358Z,63.81
2023-02-13T12:26:20.338Z,63.97
2023-02-13T12:27:20.340Z,63.65
2023-02-13T12:28:20.373Z,64.13
2023-02-13T12:29:20.449Z,63.81
2023-02-13T12:30:20.301Z,64.29
2023-02-13T12:31:20.340Z,66.06
2023-02-13T12:32:20.289Z,65.26
2023-02-13T12:33:20.292Z,65.10
2023-02-13T12:34:20.261Z,63.65
2023-02-13T12:35:20.251Z,63.97
2023-02-13T12:36:20.268Z,64.78
2023-02-13T12:37:20.243Z,65.90
2023-02-13T12:38:20.236Z,65.42
2023-02-13T12:39:20.233Z,65.10
2023-02-13T12:40:20.210Z,63.97
2023-02-13T12:41:20.212Z,64.29
2023-02-13T12:42:20.190Z,68.96
2023-02-13T12:43:20.211Z,63.49
2023-02-13T12:44:20.224Z,62.04
2023-02-13T12:45:20.168Z,63.49
2023-02-13T12:46:20.172Z,65.58
2023-02-13T12:47:20.153Z,65.58
2023-02-13T12:48:20.156Z,66.55
2023-02-13T12:49:20.144Z,65.42
2023-02-13T12:50:20.159Z,63.65
2023-02-13T12:51:20.136Z,68.16
2023-02-13T12:52:20.143Z,64.78